sensor_id;sensor_type;location;lat;lon;timestamp;P1;durP1;ratioP1;P2;durP2;ratioP2
41466;SDS011;72625;53.700;19.958;2024-02-26T00:03:51;11.10;;;10.30;;
41466;SDS011;72625;53.700;19.958;2024-02-26T00:08:55;9.60;;;8.90;;
41466;SDS011;72625;53.700;19.958;2024-02-26T00:13:59;8.80;;;8.20;;
41466;SDS011;72625;53.700;19.958;2024-02-26T00:19:03;8.40;;;7.80;;
41466;SDS011;72625;53.700;19.958;2024-02-26T00:24:07;7.70;;;7.20;;
41466;SDS011;72625;53.700;19.958;2024-02-26T00:29:18;9.00;;;8.30;;
41466;SDS011;72625;53.700;19.958;2024-02-26T00:34:28;8.50;;;7.90;;
41466;SDS011;72625;53.700;19.958;2024-02-26T00:39:35;8.80;;;8.20;;
41466;SDS011;72625;53.700;19.958;2024-02-26T00:50:22;10.50;;;9.50;;
41466;SDS011;72625;53.700;19.958;2024-02-26T00:55:29;9.30;;;8.60;;
41466;SDS011;72625;53.700;19.958;2024-02-26T01:00:33;9.50;;;8.80;;
41466;SDS011;72625;53.700;19.958;2024-02-26T01:05:39;9.50;;;8.80;;
41466;SDS011;72625;53.700;19.958;2024-02-26T01:10:43;9.40;;;8.70;;
41466;SDS011;72625;53.700;19.958;2024-02-26T01:15:59;9.70;;;9.00;;
41466;SDS011;72625;53.700;19.958;2024-02-26T01:32:31;11.20;;;10.40;;
41466;SDS011;72625;53.700;19.958;2024-02-26T01:43:41;9.10;;;8.40;;
41466;SDS011;72625;53.700;19.958;2024-02-26T01:48:48;8.50;;;7.90;;
41466;SDS011;72625;53.700;19.958;2024-02-26T01:53:53;8.20;;;7.60;;
41466;SDS011;72625;53.700;19.958;2024-02-26T01:58:57;9.00;;;8.10;;
41466;SDS011;72625;53.700;19.958;2024-02-26T02:04:11;7.60;;;7.10;;
41466;SDS011;72625;53.700;19.958;2024-02-26T02:09:54;8.00;;;7.50;;
41466;SDS011;72625;53.700;19.958;2024-02-26T02:15:39;7.40;;;6.90;;
41466;SDS011;72625;53.700;19.958;2024-02-26T02:20:42;8.00;;;7.40;;
41466;SDS011;72625;53.700;19.958;2024-02-26T02:25:46;7.90;;;7.30;;
41466;SDS011;72625;53.700;19.958;2024-02-26T02:30:50;13.00;;;12.00;;
41466;SDS011;72625;53.700;19.958;2024-02-26T02:35:55;8.60;;;7.90;;
41466;SDS011;72625;53.700;19.958;2024-02-26T02:53:06;9.50;;;8.80;;
41466;SDS011;72625;53.700;19.958;2024-02-26T02:58:10;9.20;;;8.50;;
41466;SDS011;72625;53.700;19.958;2024-02-26T03:03:13;11.00;;;10.20;;
41466;SDS011;72625;53.700;19.958;2024-02-26T03:08:17;9.90;;;9.10;;
41466;SDS011;72625;53.700;19.958;2024-02-26T03:13:27;10.30;;;9.60;;
41466;SDS011;72625;53.700;19.958;2024-02-26T03:24:01;11.70;;;10.80;;
41466;SDS011;72625;53.700;19.958;2024-02-26T03:29:05;10.10;;;9.40;;
41466;SDS011;72625;53.700;19.958;2024-02-26T03:34:09;8.60;;;7.90;;
41466;SDS011;72625;53.700;19.958;2024-02-26T03:39:18;7.10;;;6.70;;
41466;SDS011;72625;53.700;19.958;2024-02-26T03:44:22;7.80;;;7.20;;
41466;SDS011;72625;53.700;19.958;2024-02-26T03:49:34;7.90;;;7.30;;
41466;SDS011;72625;53.700;19.958;2024-02-26T04:05:15;9.80;;;9.00;;
41466;SDS011;72625;53.700;19.958;2024-02-26T04:10:19;9.50;;;8.80;;
41466;SDS011;72625;53.700;19.958;2024-02-26T04:15:26;7.80;;;7.20;;
41466;SDS011;72625;53.700;19.958;2024-02-26T04:20:30;8.40;;;7.80;;
41466;SDS011;72625;53.700;19.958;2024-02-26T04:25:37;7.70;;;7.20;;
41466;SDS011;72625;53.700;19.958;2024-02-26T04:30:41;9.30;;;8.60;;
41466;SDS011;72625;53.700;19.958;2024-02-26T04:35:45;8.60;;;8.00;;
41466;SDS011;72625;53.700;19.958;2024-02-26T04:40:52;8.80;;;8.20;;
41466;SDS011;72625;53.700;19.958;2024-02-26T04:45:59;8.80;;;8.20;;
41466;SDS011;72625;53.700;19.958;2024-02-26T04:51:06;9.40;;;8.70;;
41466;SDS011;72625;53.700;19.958;2024-02-26T05:02:29;11.00;;;10.10;;
41466;SDS011;72625;53.700;19.958;2024-02-26T05:07:43;10.60;;;9.90;;
41466;SDS011;72625;53.700;19.958;2024-02-26T05:12:46;11.10;;;10.20;;
41466;SDS011;72625;53.700;19.958;2024-02-26T05:18:01;7.80;;;7.20;;
41466;SDS011;72625;53.700;19.958;2024-02-26T05:23:39;8.20;;;7.60;;
41466;SDS011;72625;53.700;19.958;2024-02-26T05:29:03;8.30;;;7.70;;
41466;SDS011;72625;53.700;19.958;2024-02-26T05:34:10;6.00;;;5.60;;
41466;SDS011;72625;53.700;19.958;2024-02-26T05:39:14;5.70;;;5.30;;
41466;SDS011;72625;53.700;19.958;2024-02-26T05:44:22;6.20;;;5.80;;
41466;SDS011;72625;53.700;19.958;2024-02-26T05:49:26;9.90;;;6.20;;
41466;SDS011;72625;53.700;19.958;2024-02-26T05:54:40;6.20;;;5.80;;
41466;SDS011;72625;53.700;19.958;2024-02-26T05:59:44;8.10;;;7.60;;
41466;SDS011;72625;53.700;19.958;2024-02-26T06:05:13;7.60;;;7.00;;
41466;SDS011;72625;53.700;19.958;2024-02-26T06:10:19;8.50;;;7.90;;
41466;SDS011;72625;53.700;19.958;2024-02-26T06:15:29;9.50;;;8.90;;
41466;SDS011;72625;53.700;19.958;2024-02-26T06:20:35;9.60;;;8.80;;
41466;SDS011;72625;53.700;19.958;2024-02-26T06:25:39;10.90;;;10.20;;
41466;SDS011;72625;53.700;19.958;2024-02-26T06:30:45;11.90;;;11.00;;
41466;SDS011;72625;53.700;19.958;2024-02-26T06:35:53;10.10;;;9.30;;
41466;SDS011;72625;53.700;19.958;2024-02-26T06:41:18;11.40;;;10.50;;
41466;SDS011;72625;53.700;19.958;2024-02-26T06:46:24;14.60;;;13.40;;
41466;SDS011;72625;53.700;19.958;2024-02-26T06:51:42;16.00;;;14.80;;
41466;SDS011;72625;53.700;19.958;2024-02-26T06:57:15;14.70;;;13.30;;
41466;SDS011;72625;53.700;19.958;2024-02-26T07:02:18;15.10;;;13.70;;
41466;SDS011;72625;53.700;19.958;2024-02-26T07:07:25;14.10;;;12.90;;
41466;SDS011;72625;53.700;19.958;2024-02-26T07:12:33;10.90;;;10.10;;
41466;SDS011;72625;53.700;19.958;2024-02-26T07:17:49;12.90;;;11.80;;
41466;SDS011;72625;53.700;19.958;2024-02-26T07:22:56;12.10;;;11.30;;
41466;SDS011;72625;53.700;19.958;2024-02-26T07:28:00;11.50;;;10.60;;
41466;SDS011;72625;53.700;19.958;2024-02-26T07:44:23;12.40;;;11.40;;
41466;SDS011;72625;53.700;19.958;2024-02-26T08:01:17;16.10;;;14.60;;
41466;SDS011;72625;53.700;19.958;2024-02-26T08:12:41;13.40;;;12.40;;
41466;SDS011;72625;53.700;19.958;2024-02-26T08:18:13;15.30;;;14.20;;
41466;SDS011;72625;53.700;19.958;2024-02-26T08:23:22;14.30;;;12.90;;
41466;SDS011;72625;53.700;19.958;2024-02-26T08:28:26;12.50;;;11.40;;
41466;SDS011;72625;53.700;19.958;2024-02-26T08:33:32;13.90;;;12.50;;
41466;SDS011;72625;53.700;19.958;2024-02-26T08:38:38;14.50;;;13.20;;
41466;SDS011;72625;53.700;19.958;2024-02-26T08:43:42;12.70;;;11.70;;
41466;SDS011;72625;53.700;19.958;2024-02-26T08:48:45;17.20;;;15.80;;
41466;SDS011;72625;53.700;19.958;2024-02-26T08:53:49;13.80;;;12.50;;
41466;SDS011;72625;53.700;19.958;2024-02-26T08:58:54;15.20;;;13.90;;
41466;SDS011;72625;53.700;19.958;2024-02-26T09:04:00;14.90;;;13.60;;
41466;SDS011;72625;53.700;19.958;2024-02-26T09:09:03;13.50;;;12.50;;
41466;SDS011;72625;53.700;19.958;2024-02-26T09:14:07;13.50;;;12.30;;
41466;SDS011;72625;53.700;19.958;2024-02-26T09:19:20;12.80;;;11.60;;
41466;SDS011;72625;53.700;19.958;2024-02-26T09:24:24;11.20;;;10.20;;
41466;SDS011;72625;53.700;19.958;2024-02-26T09:29:32;11.40;;;10.40;;
41466;SDS011;72625;53.700;19.958;2024-02-26T09:34:39;12.50;;;9.90;;
41466;SDS011;72625;53.700;19.958;2024-02-26T09:39:44;12.20;;;11.10;;
41466;SDS011;72625;53.700;19.958;2024-02-26T09:44:47;12.40;;;11.40;;
41466;SDS011;72625;53.700;19.958;2024-02-26T09:50:08;12.00;;;11.00;;
41466;SDS011;72625;53.700;19.958;2024-02-26T09:55:14;8.20;;;7.60;;
41466;SDS011;72625;53.700;19.958;2024-02-26T10:00:22;7.70;;;7.10;;
41466;SDS011;72625;53.700;19.958;2024-02-26T10:05:28;9.20;;;8.50;;
41466;SDS011;72625;53.700;19.958;2024-02-26T10:10:33;7.80;;;7.30;;
41466;SDS011;72625;53.700;19.958;2024-02-26T10:20:40;7.60;;;7.00;;
41466;SDS011;72625;53.700;19.958;2024-02-26T10:25:54;7.20;;;6.70;;
41466;SDS011;72625;53.700;19.958;2024-02-26T10:30:58;7.70;;;7.00;;
41466;SDS011;72625;53.700;19.958;2024-02-26T10:36:10;7.90;;;7.30;;
41466;SDS011;72625;53.700;19.958;2024-02-26T10:41:14;11.30;;;10.40;;
41466;SDS011;72625;53.700;19.958;2024-02-26T10:46:19;10.10;;;9.10;;
41466;SDS011;72625;53.700;19.958;2024-02-26T10:51:26;11.40;;;10.30;;
41466;SDS011;72625;53.700;19.958;2024-02-26T10:56:33;6.50;;;5.90;;
41466;SDS011;72625;53.700;19.958;2024-02-26T11:01:38;10.00;;;7.90;;
41466;SDS011;72625;53.700;19.958;2024-02-26T11:06:44;6.80;;;6.20;;
41466;SDS011;72625;53.700;19.958;2024-02-26T11:11:49;6.00;;;5.40;;
41466;SDS011;72625;53.700;19.958;2024-02-26T11:17:00;6.00;;;5.00;;
41466;SDS011;72625;53.700;19.958;2024-02-26T11:22:05;6.50;;;5.70;;
41466;SDS011;72625;53.700;19.958;2024-02-26T11:27:24;5.60;;;5.10;;
41466;SDS011;72625;53.700;19.958;2024-02-26T11:32:44;6.20;;;5.60;;
41466;SDS011;72625;53.700;19.958;2024-02-26T11:37:52;5.20;;;4.50;;
41466;SDS011;72625;53.700;19.958;2024-02-26T11:42:57;4.80;;;4.40;;
41466;SDS011;72625;53.700;19.958;2024-02-26T11:48:01;4.90;;;4.50;;
41466;SDS011;72625;53.700;19.958;2024-02-26T11:53:24;5.50;;;4.90;;
41466;SDS011;72625;53.700;19.958;2024-02-26T11:58:34;8.10;;;5.60;;
41466;SDS011;72625;53.700;19.958;2024-02-26T12:03:38;7.80;;;5.70;;
41466;SDS011;72625;53.700;19.958;2024-02-26T12:08:43;6.90;;;5.40;;
41466;SDS011;72625;53.700;19.958;2024-02-26T12:13:47;5.70;;;5.10;;
41466;SDS011;72625;53.700;19.958;2024-02-26T12:18:52;6.90;;;6.30;;
41466;SDS011;72625;53.700;19.958;2024-02-26T12:24:06;6.50;;;5.90;;
41466;SDS011;72625;53.700;19.958;2024-02-26T12:29:13;6.30;;;5.40;;
41466;SDS011;72625;53.700;19.958;2024-02-26T12:34:16;5.80;;;5.30;;
41466;SDS011;72625;53.700;19.958;2024-02-26T12:39:20;6.30;;;5.80;;
41466;SDS011;72625;53.700;19.958;2024-02-26T12:44:25;6.80;;;6.30;;
41466;SDS011;72625;53.700;19.958;2024-02-26T12:49:29;5.90;;;5.40;;
41466;SDS011;72625;53.700;19.958;2024-02-26T12:54:33;6.30;;;5.70;;
41466;SDS011;72625;53.700;19.958;2024-02-26T12:59:37;6.20;;;5.70;;
41466;SDS011;72625;53.700;19.958;2024-02-26T13:04:42;8.10;;;6.10;;
41466;SDS011;72625;53.700;19.958;2024-02-26T13:09:47;5.90;;;5.50;;
41466;SDS011;72625;53.700;19.958;2024-02-26T13:15:00;6.00;;;5.60;;
41466;SDS011;72625;53.700;19.958;2024-02-26T13:20:05;5.60;;;5.20;;
41466;SDS011;72625;53.700;19.958;2024-02-26T13:25:12;6.70;;;6.20;;
41466;SDS011;72625;53.700;19.958;2024-02-26T13:30:16;5.90;;;5.40;;
41466;SDS011;72625;53.700;19.958;2024-02-26T13:35:23;6.50;;;6.10;;
41466;SDS011;72625;53.700;19.958;2024-02-26T13:40:27;6.40;;;5.80;;
41466;SDS011;72625;53.700;19.958;2024-02-26T13:45:35;6.50;;;5.90;;
41466;SDS011;72625;53.700;19.958;2024-02-26T13:50:44;7.00;;;6.10;;
41466;SDS011;72625;53.700;19.958;2024-02-26T13:55:49;6.00;;;5.50;;
41466;SDS011;72625;53.700;19.958;2024-02-26T14:00:53;5.90;;;5.40;;
41466;SDS011;72625;53.700;19.958;2024-02-26T14:11:01;6.70;;;6.20;;
41466;SDS011;72625;53.700;19.958;2024-02-26T14:16:05;6.10;;;5.50;;
41466;SDS011;72625;53.700;19.958;2024-02-26T14:21:09;6.00;;;5.50;;
41466;SDS011;72625;53.700;19.958;2024-02-26T14:26:12;5.20;;;4.60;;
41466;SDS011;72625;53.700;19.958;2024-02-26T14:31:20;5.80;;;5.40;;
41466;SDS011;72625;53.700;19.958;2024-02-26T14:36:27;9.40;;;8.60;;
41466;SDS011;72625;53.700;19.958;2024-02-26T14:41:32;6.10;;;5.40;;
41466;SDS011;72625;53.700;19.958;2024-02-26T14:46:45;5.80;;;5.30;;
41466;SDS011;72625;53.700;19.958;2024-02-26T14:51:48;7.50;;;6.50;;
41466;SDS011;72625;53.700;19.958;2024-02-26T14:56:52;7.90;;;7.10;;
41466;SDS011;72625;53.700;19.958;2024-02-26T15:01:55;8.90;;;6.70;;
41466;SDS011;72625;53.700;19.958;2024-02-26T15:06:59;7.30;;;5.90;;
41466;SDS011;72625;53.700;19.958;2024-02-26T15:12:03;6.50;;;5.50;;
41466;SDS011;72625;53.700;19.958;2024-02-26T15:17:09;7.20;;;6.50;;
41466;SDS011;72625;53.700;19.958;2024-02-26T15:22:13;11.70;;;10.50;;
41466;SDS011;72625;53.700;19.958;2024-02-26T15:27:17;9.30;;;6.20;;
41466;SDS011;72625;53.700;19.958;2024-02-26T15:32:20;6.60;;;6.00;;
41466;SDS011;72625;53.700;19.958;2024-02-26T15:37:24;8.60;;;6.60;;
41466;SDS011;72625;53.700;19.958;2024-02-26T15:42:28;8.10;;;6.90;;
41466;SDS011;72625;53.700;19.958;2024-02-26T15:47:31;13.00;;;11.10;;
41466;SDS011;72625;53.700;19.958;2024-02-26T15:52:35;9.00;;;8.20;;
41466;SDS011;72625;53.700;19.958;2024-02-26T16:07:53;15.00;;;13.50;;
41466;SDS011;72625;53.700;19.958;2024-02-26T16:13:00;37.90;;;34.00;;
41466;SDS011;72625;53.700;19.958;2024-02-26T16:18:05;47.90;;;42.90;;
41466;SDS011;72625;53.700;19.958;2024-02-26T16:23:09;35.60;;;32.00;;
41466;SDS011;72625;53.700;19.958;2024-02-26T16:28:12;26.30;;;23.80;;
41466;SDS011;72625;53.700;19.958;2024-02-26T16:33:19;21.20;;;19.30;;
41466;SDS011;72625;53.700;19.958;2024-02-26T16:38:23;23.10;;;21.10;;
41466;SDS011;72625;53.700;19.958;2024-02-26T16:43:26;19.40;;;17.90;;
41466;SDS011;72625;53.700;19.958;2024-02-26T16:48:36;19.10;;;17.40;;
41466;SDS011;72625;53.700;19.958;2024-02-26T16:53:43;16.20;;;14.90;;
41466;SDS011;72625;53.700;19.958;2024-02-26T16:58:46;15.30;;;14.10;;
41466;SDS011;72625;53.700;19.958;2024-02-26T17:04:12;14.00;;;12.80;;
41466;SDS011;72625;53.700;19.958;2024-02-26T17:09:16;11.50;;;10.60;;
41466;SDS011;72625;53.700;19.958;2024-02-26T17:14:29;16.00;;;14.40;;
41466;SDS011;72625;53.700;19.958;2024-02-26T17:19:40;29.40;;;27.20;;
41466;SDS011;72625;53.700;19.958;2024-02-26T17:24:43;24.80;;;22.90;;
41466;SDS011;72625;53.700;19.958;2024-02-26T17:29:50;121.30;;;109.80;;
41466;SDS011;72625;53.700;19.958;2024-02-26T17:34:54;65.70;;;59.20;;
41466;SDS011;72625;53.700;19.958;2024-02-26T17:39:57;38.20;;;34.40;;
41466;SDS011;72625;53.700;19.958;2024-02-26T17:45:11;28.30;;;25.30;;
41466;SDS011;72625;53.700;19.958;2024-02-26T17:50:24;22.20;;;20.20;;
41466;SDS011;72625;53.700;19.958;2024-02-26T17:55:27;17.50;;;16.00;;
41466;SDS011;72625;53.700;19.958;2024-02-26T18:00:33;15.70;;;14.40;;
41466;SDS011;72625;53.700;19.958;2024-02-26T18:05:38;11.50;;;10.60;;
41466;SDS011;72625;53.700;19.958;2024-02-26T18:10:42;9.70;;;8.70;;
41466;SDS011;72625;53.700;19.958;2024-02-26T18:15:45;7.30;;;6.70;;
41466;SDS011;72625;53.700;19.958;2024-02-26T18:26:32;10.80;;;10.00;;
41466;SDS011;72625;53.700;19.958;2024-02-26T18:31:39;11.80;;;10.90;;
41466;SDS011;72625;53.700;19.958;2024-02-26T18:36:43;12.60;;;11.40;;
41466;SDS011;72625;53.700;19.958;2024-02-26T18:41:46;14.80;;;13.40;;
41466;SDS011;72625;53.700;19.958;2024-02-26T18:46:50;13.70;;;12.30;;
41466;SDS011;72625;53.700;19.958;2024-02-26T18:51:54;14.50;;;13.50;;
41466;SDS011;72625;53.700;19.958;2024-02-26T18:56:57;14.70;;;13.40;;
41466;SDS011;72625;53.700;19.958;2024-02-26T19:02:01;14.10;;;13.00;;
41466;SDS011;72625;53.700;19.958;2024-02-26T19:07:05;14.00;;;12.90;;
41466;SDS011;72625;53.700;19.958;2024-02-26T19:12:09;15.50;;;14.20;;
41466;SDS011;72625;53.700;19.958;2024-02-26T19:17:12;13.60;;;12.60;;
41466;SDS011;72625;53.700;19.958;2024-02-26T19:22:16;11.80;;;10.80;;
41466;SDS011;72625;53.700;19.958;2024-02-26T19:27:30;10.30;;;9.50;;
41466;SDS011;72625;53.700;19.958;2024-02-26T19:32:34;10.00;;;9.20;;
41466;SDS011;72625;53.700;19.958;2024-02-26T19:37:38;10.90;;;10.00;;
41466;SDS011;72625;53.700;19.958;2024-02-26T19:42:56;11.30;;;10.50;;
41466;SDS011;72625;53.700;19.958;2024-02-26T19:48:05;14.60;;;13.40;;
41466;SDS011;72625;53.700;19.958;2024-02-26T19:53:14;15.60;;;14.30;;
41466;SDS011;72625;53.700;19.958;2024-02-26T19:58:26;15.00;;;13.90;;
41466;SDS011;72625;53.700;19.958;2024-02-26T20:03:29;12.50;;;11.50;;
41466;SDS011;72625;53.700;19.958;2024-02-26T20:08:39;44.90;;;41.00;;
41466;SDS011;72625;53.700;19.958;2024-02-26T20:13:45;30.90;;;28.30;;
41466;SDS011;72625;53.700;19.958;2024-02-26T20:18:49;19.20;;;17.80;;
41466;SDS011;72625;53.700;19.958;2024-02-26T20:23:52;20.60;;;18.90;;
41466;SDS011;72625;53.700;19.958;2024-02-26T20:28:56;21.70;;;19.80;;
41466;SDS011;72625;53.700;19.958;2024-02-26T20:34:02;21.20;;;19.50;;
41466;SDS011;72625;53.700;19.958;2024-02-26T20:39:11;19.80;;;18.30;;
41466;SDS011;72625;53.700;19.958;2024-02-26T20:44:16;18.90;;;17.40;;
41466;SDS011;72625;53.700;19.958;2024-02-26T20:49:22;15.50;;;14.30;;
41466;SDS011;72625;53.700;19.958;2024-02-26T20:54:26;17.00;;;15.30;;
41466;SDS011;72625;53.700;19.958;2024-02-26T20:59:30;19.00;;;17.40;;
41466;SDS011;72625;53.700;19.958;2024-02-26T21:04:35;20.00;;;18.30;;
41466;SDS011;72625;53.700;19.958;2024-02-26T21:09:39;22.90;;;21.00;;
41466;SDS011;72625;53.700;19.958;2024-02-26T21:14:45;23.10;;;21.20;;
41466;SDS011;72625;53.700;19.958;2024-02-26T21:20:10;30.10;;;27.70;;
41466;SDS011;72625;53.700;19.958;2024-02-26T21:25:23;31.60;;;29.20;;
41466;SDS011;72625;53.700;19.958;2024-02-26T21:30:27;28.30;;;26.10;;
41466;SDS011;72625;53.700;19.958;2024-02-26T21:35:33;22.00;;;20.30;;
41466;SDS011;72625;53.700;19.958;2024-02-26T21:40:40;24.90;;;22.80;;
41466;SDS011;72625;53.700;19.958;2024-02-26T21:45:55;23.10;;;21.20;;
41466;SDS011;72625;53.700;19.958;2024-02-26T22:13:34;12.30;;;11.40;;
41466;SDS011;72625;53.700;19.958;2024-02-26T22:18:39;25.30;;;23.20;;
41466;SDS011;72625;53.700;19.958;2024-02-26T22:24:05;21.60;;;19.90;;
41466;SDS011;72625;53.700;19.958;2024-02-26T22:29:09;20.40;;;18.70;;
41466;SDS011;72625;53.700;19.958;2024-02-26T22:39:33;30.50;;;28.20;;
41466;SDS011;72625;53.700;19.958;2024-02-26T22:49:42;18.20;;;16.70;;
41466;SDS011;72625;53.700;19.958;2024-02-26T23:06:27;15.50;;;14.30;;
41466;SDS011;72625;53.700;19.958;2024-02-26T23:17:15;12.40;;;11.40;;
41466;SDS011;72625;53.700;19.958;2024-02-26T23:28:24;9.70;;;9.00;;
41466;SDS011;72625;53.700;19.958;2024-02-26T23:39:11;20.40;;;18.80;;
41466;SDS011;72625;53.700;19.958;2024-02-26T23:44:20;18.70;;;17.30;;
